sensor_id;sensor_type;location;lat;lon;timestamp;P1;durP1;ratioP1;P2;durP2;ratioP2
1593;SDS011;790;47.000;16.084;2022-12-04T00:02:06;40.37;;;20.50;;
1593;SDS011;790;47.000;16.084;2022-12-04T00:04:34;37.40;;;19.67;;
1593;SDS011;790;47.000;16.084;2022-12-04T00:07:02;41.57;;;21.33;;
1593;SDS011;790;47.000;16.084;2022-12-04T00:09:29;38.23;;;19.13;;
1593;SDS011;790;47.000;16.084;2022-12-04T00:11:56;36.43;;;19.20;;
1593;SDS011;790;47.000;16.084;2022-12-04T00:14:23;36.60;;;19.63;;
1593;SDS011;790;47.000;16.084;2022-12-04T00:16:50;43.57;;;20.17;;
1593;SDS011;790;47.000;16.084;2022-12-04T00:19:17;40.37;;;19.63;;
1593;SDS011;790;47.000;16.084;2022-12-04T00:21:45;36.23;;;19.53;;
1593;SDS011;790;47.000;16.084;2022-12-04T00:24:14;37.50;;;20.77;;
1593;SDS011;790;47.000;16.084;2022-12-04T00:26:42;34.60;;;19.63;;
1593;SDS011;790;47.000;16.084;2022-12-04T00:29:09;38.37;;;18.50;;
1593;SDS011;790;47.000;16.084;2022-12-04T00:31:36;33.40;;;18.67;;
1593;SDS011;790;47.000;16.084;2022-12-04T00:34:03;39.90;;;20.87;;
1593;SDS011;790;47.000;16.084;2022-12-04T00:36:30;39.37;;;20.10;;
1593;SDS011;790;47.000;16.084;2022-12-04T00:38:58;34.93;;;18.80;;
1593;SDS011;790;47.000;16.084;2022-12-04T00:41:27;36.60;;;20.03;;
1593;SDS011;790;47.000;16.084;2022-12-04T00:43:55;43.43;;;23.80;;
1593;SDS011;790;47.000;16.084;2022-12-04T00:46:23;40.27;;;20.87;;
1593;SDS011;790;47.000;16.084;2022-12-04T00:48:50;38.47;;;19.87;;
1593;SDS011;790;47.000;16.084;2022-12-04T00:51:20;39.60;;;20.57;;
1593;SDS011;790;47.000;16.084;2022-12-04T00:53:47;45.50;;;22.97;;
1593;SDS011;790;47.000;16.084;2022-12-04T00:56:17;41.20;;;21.40;;
1593;SDS011;790;47.000;16.084;2022-12-04T00:58:46;38.73;;;20.43;;
1593;SDS011;790;47.000;16.084;2022-12-04T01:01:14;40.67;;;21.97;;
1593;SDS011;790;47.000;16.084;2022-12-04T01:03:43;43.60;;;21.13;;
1593;SDS011;790;47.000;16.084;2022-12-04T01:06:16;48.13;;;23.13;;
1593;SDS011;790;47.000;16.084;2022-12-04T01:08:44;39.37;;;20.53;;
1593;SDS011;790;47.000;16.084;2022-12-04T01:11:11;46.67;;;22.37;;
1593;SDS011;790;47.000;16.084;2022-12-04T01:13:39;49.87;;;22.33;;
1593;SDS011;790;47.000;16.084;2022-12-04T01:16:06;41.37;;;22.03;;
1593;SDS011;790;47.000;16.084;2022-12-04T01:18:34;43.80;;;22.27;;
1593;SDS011;790;47.000;16.084;2022-12-04T01:21:01;40.40;;;20.87;;
1593;SDS011;790;47.000;16.084;2022-12-04T01:23:28;41.00;;;20.53;;
1593;SDS011;790;47.000;16.084;2022-12-04T01:25:56;44.77;;;21.50;;
1593;SDS011;790;47.000;16.084;2022-12-04T01:28:24;38.90;;;20.57;;
1593;SDS011;790;47.000;16.084;2022-12-04T01:30:59;42.47;;;21.97;;
1593;SDS011;790;47.000;16.084;2022-12-04T01:33:28;48.83;;;22.53;;
1593;SDS011;790;47.000;16.084;2022-12-04T01:35:57;47.47;;;22.13;;
1593;SDS011;790;47.000;16.084;2022-12-04T01:38:25;45.73;;;21.33;;
1593;SDS011;790;47.000;16.084;2022-12-04T01:40:53;45.07;;;21.57;;
1593;SDS011;790;47.000;16.084;2022-12-04T01:43:21;45.07;;;21.27;;
1593;SDS011;790;47.000;16.084;2022-12-04T01:45:49;42.77;;;21.13;;
1593;SDS011;790;47.000;16.084;2022-12-04T01:48:20;48.57;;;22.00;;
1593;SDS011;790;47.000;16.084;2022-12-04T01:50:53;46.37;;;21.97;;
1593;SDS011;790;47.000;16.084;2022-12-04T01:53:24;57.73;;;22.17;;
1593;SDS011;790;47.000;16.084;2022-12-04T01:55:51;49.60;;;22.90;;
1593;SDS011;790;47.000;16.084;2022-12-04T01:58:20;50.60;;;22.90;;
1593;SDS011;790;47.000;16.084;2022-12-04T02:00:52;48.53;;;22.57;;
1593;SDS011;790;47.000;16.084;2022-12-04T02:03:25;53.53;;;22.47;;
1593;SDS011;790;47.000;16.084;2022-12-04T02:05:52;54.93;;;22.10;;
1593;SDS011;790;47.000;16.084;2022-12-04T02:08:19;59.90;;;22.53;;
1593;SDS011;790;47.000;16.084;2022-12-04T02:10:48;74.67;;;23.63;;
1593;SDS011;790;47.000;16.084;2022-12-04T02:13:22;54.40;;;22.73;;
1593;SDS011;790;47.000;16.084;2022-12-04T02:15:56;68.40;;;21.90;;
1593;SDS011;790;47.000;16.084;2022-12-04T02:18:35;50.40;;;20.53;;
1593;SDS011;790;47.000;16.084;2022-12-04T02:21:12;58.37;;;20.27;;
1593;SDS011;790;47.000;16.084;2022-12-04T02:23:50;69.63;;;22.77;;
1593;SDS011;790;47.000;16.084;2022-12-04T02:29:18;49.80;;;22.53;;
1593;SDS011;790;47.000;16.084;2022-12-04T02:31:53;59.90;;;23.67;;
1593;SDS011;790;47.000;16.084;2022-12-04T02:34:25;57.93;;;24.30;;
1593;SDS011;790;47.000;16.084;2022-12-04T02:36:56;61.37;;;23.57;;
1593;SDS011;790;47.000;16.084;2022-12-04T02:39:28;52.70;;;24.07;;
1593;SDS011;790;47.000;16.084;2022-12-04T02:42:04;46.93;;;23.23;;
1593;SDS011;790;47.000;16.084;2022-12-04T02:44:41;55.13;;;23.40;;
1593;SDS011;790;47.000;16.084;2022-12-04T02:47:13;48.87;;;22.73;;
1593;SDS011;790;47.000;16.084;2022-12-04T02:49:45;53.93;;;24.37;;
1593;SDS011;790;47.000;16.084;2022-12-04T02:52:17;53.73;;;23.70;;
1593;SDS011;790;47.000;16.084;2022-12-04T02:54:52;57.90;;;23.10;;
1593;SDS011;790;47.000;16.084;2022-12-04T02:57:23;54.83;;;21.90;;
1593;SDS011;790;47.000;16.084;2022-12-04T02:59:55;49.17;;;21.97;;
1593;SDS011;790;47.000;16.084;2022-12-04T03:02:26;56.80;;;22.50;;
1593;SDS011;790;47.000;16.084;2022-12-04T03:04:59;64.67;;;23.03;;
1593;SDS011;790;47.000;16.084;2022-12-04T03:07:29;48.10;;;22.17;;
1593;SDS011;790;47.000;16.084;2022-12-04T03:10:00;54.83;;;23.80;;
1593;SDS011;790;47.000;16.084;2022-12-04T03:12:34;51.00;;;22.53;;
1593;SDS011;790;47.000;16.084;2022-12-04T03:15:07;63.93;;;23.47;;
1593;SDS011;790;47.000;16.084;2022-12-04T03:17:40;56.77;;;23.00;;
1593;SDS011;790;47.000;16.084;2022-12-04T03:20:13;52.70;;;22.77;;
1593;SDS011;790;47.000;16.084;2022-12-04T03:22:43;51.23;;;23.10;;
1593;SDS011;790;47.000;16.084;2022-12-04T03:25:15;51.00;;;21.80;;
1593;SDS011;790;47.000;16.084;2022-12-04T03:27:44;51.60;;;21.83;;
1593;SDS011;790;47.000;16.084;2022-12-04T03:30:19;49.47;;;21.67;;
1593;SDS011;790;47.000;16.084;2022-12-04T03:32:48;48.30;;;20.87;;
1593;SDS011;790;47.000;16.084;2022-12-04T03:35:18;43.50;;;20.40;;
1593;SDS011;790;47.000;16.084;2022-12-04T03:37:52;46.23;;;20.77;;
1593;SDS011;790;47.000;16.084;2022-12-04T03:40:26;49.33;;;22.10;;
1593;SDS011;790;47.000;16.084;2022-12-04T03:42:59;48.03;;;20.80;;
1593;SDS011;790;47.000;16.084;2022-12-04T03:45:33;49.83;;;20.37;;
1593;SDS011;790;47.000;16.084;2022-12-04T03:48:09;49.67;;;19.70;;
1593;SDS011;790;47.000;16.084;2022-12-04T03:50:45;43.10;;;19.53;;
1593;SDS011;790;47.000;16.084;2022-12-04T03:53:19;47.27;;;22.67;;
1593;SDS011;790;47.000;16.084;2022-12-04T03:55:51;46.43;;;20.70;;
1593;SDS011;790;47.000;16.084;2022-12-04T03:58:24;43.73;;;19.67;;
1593;SDS011;790;47.000;16.084;2022-12-04T04:00:57;38.03;;;18.90;;
1593;SDS011;790;47.000;16.084;2022-12-04T04:03:28;39.93;;;18.37;;
1593;SDS011;790;47.000;16.084;2022-12-04T04:06:00;40.33;;;18.80;;
1593;SDS011;790;47.000;16.084;2022-12-04T04:08:33;42.37;;;18.97;;
1593;SDS011;790;47.000;16.084;2022-12-04T04:11:05;36.93;;;18.30;;
1593;SDS011;790;47.000;16.084;2022-12-04T04:13:37;39.50;;;18.30;;
1593;SDS011;790;47.000;16.084;2022-12-04T04:16:27;39.23;;;19.20;;
1593;SDS011;790;47.000;16.084;2022-12-04T04:19:14;39.17;;;19.60;;
1593;SDS011;790;47.000;16.084;2022-12-04T04:22:01;42.57;;;19.23;;
1593;SDS011;790;47.000;16.084;2022-12-04T04:24:49;43.87;;;19.80;;
1593;SDS011;790;47.000;16.084;2022-12-04T04:27:20;35.10;;;19.13;;
1593;SDS011;790;47.000;16.084;2022-12-04T04:29:47;34.27;;;17.50;;
1593;SDS011;790;47.000;16.084;2022-12-04T04:32:18;36.07;;;17.63;;
1593;SDS011;790;47.000;16.084;2022-12-04T04:34:53;36.90;;;17.00;;
1593;SDS011;790;47.000;16.084;2022-12-04T04:37:30;36.50;;;16.80;;
1593;SDS011;790;47.000;16.084;2022-12-04T04:40:06;32.30;;;17.37;;
1593;SDS011;790;47.000;16.084;2022-12-04T04:42:42;34.93;;;17.80;;
1593;SDS011;790;47.000;16.084;2022-12-04T04:45:15;33.80;;;17.50;;
1593;SDS011;790;47.000;16.084;2022-12-04T04:47:48;35.40;;;17.13;;
1593;SDS011;790;47.000;16.084;2022-12-04T04:50:19;40.03;;;18.60;;
1593;SDS011;790;47.000;16.084;2022-12-04T04:52:48;41.80;;;18.93;;
1593;SDS011;790;47.000;16.084;2022-12-04T04:55:17;47.33;;;19.60;;
1593;SDS011;790;47.000;16.084;2022-12-04T04:57:46;41.07;;;19.20;;
1593;SDS011;790;47.000;16.084;2022-12-04T05:00:14;37.27;;;18.57;;
1593;SDS011;790;47.000;16.084;2022-12-04T05:02:42;36.17;;;17.53;;
1593;SDS011;790;47.000;16.084;2022-12-04T05:05:11;41.27;;;18.53;;
1593;SDS011;790;47.000;16.084;2022-12-04T05:07:39;36.30;;;18.00;;
1593;SDS011;790;47.000;16.084;2022-12-04T05:10:07;40.77;;;19.60;;
1593;SDS011;790;47.000;16.084;2022-12-04T05:12:35;39.57;;;17.80;;
1593;SDS011;790;47.000;16.084;2022-12-04T05:15:02;36.97;;;18.10;;
1593;SDS011;790;47.000;16.084;2022-12-04T05:17:29;42.03;;;19.00;;
1593;SDS011;790;47.000;16.084;2022-12-04T05:19:56;43.00;;;19.53;;
1593;SDS011;790;47.000;16.084;2022-12-04T05:22:24;39.70;;;19.37;;
1593;SDS011;790;47.000;16.084;2022-12-04T05:24:54;51.23;;;21.67;;
1593;SDS011;790;47.000;16.084;2022-12-04T05:27:21;45.53;;;23.53;;
1593;SDS011;790;47.000;16.084;2022-12-04T05:29:50;52.23;;;20.27;;
1593;SDS011;790;47.000;16.084;2022-12-04T05:32:18;37.07;;;19.60;;
1593;SDS011;790;47.000;16.084;2022-12-04T05:34:46;36.37;;;17.67;;
1593;SDS011;790;47.000;16.084;2022-12-04T05:37:13;39.33;;;18.73;;
1593;SDS011;790;47.000;16.084;2022-12-04T05:39:41;40.03;;;19.47;;
1593;SDS011;790;47.000;16.084;2022-12-04T05:42:09;41.67;;;19.23;;
1593;SDS011;790;47.000;16.084;2022-12-04T05:44:36;38.60;;;18.40;;
1593;SDS011;790;47.000;16.084;2022-12-04T05:47:03;40.53;;;18.13;;
1593;SDS011;790;47.000;16.084;2022-12-04T05:49:31;39.57;;;18.37;;
1593;SDS011;790;47.000;16.084;2022-12-04T05:51:58;37.70;;;17.73;;
1593;SDS011;790;47.000;16.084;2022-12-04T05:54:27;32.90;;;16.50;;
1593;SDS011;790;47.000;16.084;2022-12-04T05:56:55;38.70;;;17.50;;
1593;SDS011;790;47.000;16.084;2022-12-04T05:59:22;36.17;;;17.83;;
1593;SDS011;790;47.000;16.084;2022-12-04T06:01:49;39.70;;;18.67;;
1593;SDS011;790;47.000;16.084;2022-12-04T06:04:16;30.03;;;17.00;;
1593;SDS011;790;47.000;16.084;2022-12-04T06:06:43;40.63;;;18.93;;
1593;SDS011;790;47.000;16.084;2022-12-04T06:09:10;34.07;;;18.17;;
1593;SDS011;790;47.000;16.084;2022-12-04T06:11:38;39.73;;;18.27;;
1593;SDS011;790;47.000;16.084;2022-12-04T06:14:09;38.97;;;19.00;;
1593;SDS011;790;47.000;16.084;2022-12-04T06:16:38;36.33;;;18.43;;
1593;SDS011;790;47.000;16.084;2022-12-04T06:19:06;37.27;;;19.63;;
1593;SDS011;790;47.000;16.084;2022-12-04T06:21:36;35.83;;;19.10;;
1593;SDS011;790;47.000;16.084;2022-12-04T06:24:04;34.40;;;18.27;;
1593;SDS011;790;47.000;16.084;2022-12-04T06:26:32;40.40;;;19.30;;
1593;SDS011;790;47.000;16.084;2022-12-04T06:28:59;42.83;;;20.43;;
1593;SDS011;790;47.000;16.084;2022-12-04T06:31:27;45.47;;;20.07;;
1593;SDS011;790;47.000;16.084;2022-12-04T06:33:55;36.87;;;18.60;;
1593;SDS011;790;47.000;16.084;2022-12-04T06:36:23;45.37;;;20.17;;
1593;SDS011;790;47.000;16.084;2022-12-04T06:38:51;42.57;;;19.53;;
1593;SDS011;790;47.000;16.084;2022-12-04T06:41:20;42.17;;;20.07;;
1593;SDS011;790;47.000;16.084;2022-12-04T06:43:48;43.73;;;19.97;;
1593;SDS011;790;47.000;16.084;2022-12-04T06:46:16;42.87;;;18.70;;
1593;SDS011;790;47.000;16.084;2022-12-04T06:48:46;43.23;;;19.73;;
1593;SDS011;790;47.000;16.084;2022-12-04T06:51:14;41.37;;;19.13;;
1593;SDS011;790;47.000;16.084;2022-12-04T06:53:43;46.57;;;21.13;;
1593;SDS011;790;47.000;16.084;2022-12-04T06:56:12;42.10;;;19.60;;
1593;SDS011;790;47.000;16.084;2022-12-04T06:58:42;54.47;;;20.87;;
1593;SDS011;790;47.000;16.084;2022-12-04T07:01:11;49.93;;;21.57;;
1593;SDS011;790;47.000;16.084;2022-12-04T07:03:39;47.90;;;20.73;;
1593;SDS011;790;47.000;16.084;2022-12-04T07:06:12;41.77;;;21.60;;
1593;SDS011;790;47.000;16.084;2022-12-04T07:08:40;59.37;;;20.80;;
1593;SDS011;790;47.000;16.084;2022-12-04T07:11:07;49.90;;;20.27;;
1593;SDS011;790;47.000;16.084;2022-12-04T07:13:34;45.27;;;19.17;;
1593;SDS011;790;47.000;16.084;2022-12-04T07:16:02;43.93;;;20.00;;
1593;SDS011;790;47.000;16.084;2022-12-04T07:18:33;49.83;;;21.30;;
1593;SDS011;790;47.000;16.084;2022-12-04T07:21:03;45.17;;;20.60;;
1593;SDS011;790;47.000;16.084;2022-12-04T07:23:32;49.37;;;22.07;;
1593;SDS011;790;47.000;16.084;2022-12-04T07:26:03;48.57;;;22.97;;
1593;SDS011;790;47.000;16.084;2022-12-04T07:28:31;69.63;;;24.43;;
1593;SDS011;790;47.000;16.084;2022-12-04T07:30:58;47.43;;;20.10;;
1593;SDS011;790;47.000;16.084;2022-12-04T07:33:29;50.27;;;21.73;;
1593;SDS011;790;47.000;16.084;2022-12-04T07:35:56;47.63;;;20.00;;
1593;SDS011;790;47.000;16.084;2022-12-04T07:38:24;48.57;;;20.33;;
1593;SDS011;790;47.000;16.084;2022-12-04T07:40:52;48.47;;;20.00;;
1593;SDS011;790;47.000;16.084;2022-12-04T07:43:21;43.47;;;22.73;;
1593;SDS011;790;47.000;16.084;2022-12-04T07:45:48;46.27;;;20.07;;
1593;SDS011;790;47.000;16.084;2022-12-04T07:48:15;46.13;;;20.50;;
1593;SDS011;790;47.000;16.084;2022-12-04T07:50:42;59.37;;;22.20;;
1593;SDS011;790;47.000;16.084;2022-12-04T07:53:09;60.03;;;20.70;;
1593;SDS011;790;47.000;16.084;2022-12-04T07:55:37;47.80;;;21.67;;
1593;SDS011;790;47.000;16.084;2022-12-04T07:58:05;51.33;;;21.23;;
1593;SDS011;790;47.000;16.084;2022-12-04T08:00:32;62.17;;;22.73;;
1593;SDS011;790;47.000;16.084;2022-12-04T08:02:59;57.80;;;20.33;;
1593;SDS011;790;47.000;16.084;2022-12-04T08:05:26;64.33;;;22.20;;
1593;SDS011;790;47.000;16.084;2022-12-04T08:07:53;54.63;;;21.93;;
1593;SDS011;790;47.000;16.084;2022-12-04T08:10:20;57.77;;;22.80;;
1593;SDS011;790;47.000;16.084;2022-12-04T08:12:47;59.67;;;21.90;;
1593;SDS011;790;47.000;16.084;2022-12-04T08:15:15;73.07;;;27.07;;
1593;SDS011;790;47.000;16.084;2022-12-04T08:17:42;71.93;;;27.10;;
1593;SDS011;790;47.000;16.084;2022-12-04T08:20:10;60.70;;;29.93;;
1593;SDS011;790;47.000;16.084;2022-12-04T08:22:37;90.40;;;27.97;;
1593;SDS011;790;47.000;16.084;2022-12-04T08:25:04;56.17;;;28.60;;
1593;SDS011;790;47.000;16.084;2022-12-04T08:27:32;69.83;;;26.80;;
1593;SDS011;790;47.000;16.084;2022-12-04T08:29:59;54.77;;;25.03;;
1593;SDS011;790;47.000;16.084;2022-12-04T08:32:28;66.27;;;25.47;;
1593;SDS011;790;47.000;16.084;2022-12-04T08:34:55;65.80;;;24.23;;
1593;SDS011;790;47.000;16.084;2022-12-04T08:37:23;57.97;;;22.63;;
1593;SDS011;790;47.000;16.084;2022-12-04T08:39:51;60.07;;;22.87;;
1593;SDS011;790;47.000;16.084;2022-12-04T08:42:18;66.27;;;23.13;;
1593;SDS011;790;47.000;16.084;2022-12-04T08:44:45;73.80;;;23.87;;
1593;SDS011;790;47.000;16.084;2022-12-04T08:47:12;56.77;;;21.43;;
1593;SDS011;790;47.000;16.084;2022-12-04T08:49:41;87.57;;;24.47;;
1593;SDS011;790;47.000;16.084;2022-12-04T08:52:08;88.73;;;26.10;;
1593;SDS011;790;47.000;16.084;2022-12-04T08:54:35;72.60;;;26.57;;
1593;SDS011;790;47.000;16.084;2022-12-04T08:57:02;69.87;;;24.70;;
1593;SDS011;790;47.000;16.084;2022-12-04T08:59:29;72.27;;;26.03;;
1593;SDS011;790;47.000;16.084;2022-12-04T09:01:56;53.17;;;23.97;;
1593;SDS011;790;47.000;16.084;2022-12-04T09:04:23;54.10;;;24.17;;
1593;SDS011;790;47.000;16.084;2022-12-04T09:06:51;70.03;;;25.63;;
1593;SDS011;790;47.000;16.084;2022-12-04T09:09:18;67.80;;;25.43;;
1593;SDS011;790;47.000;16.084;2022-12-04T09:11:45;62.40;;;24.67;;
1593;SDS011;790;47.000;16.084;2022-12-04T09:14:13;74.57;;;32.73;;
1593;SDS011;790;47.000;16.084;2022-12-04T09:16:41;66.63;;;27.93;;
1593;SDS011;790;47.000;16.084;2022-12-04T09:19:08;60.20;;;26.80;;
1593;SDS011;790;47.000;16.084;2022-12-04T09:21:35;79.50;;;32.97;;
1593;SDS011;790;47.000;16.084;2022-12-04T09:24:04;74.63;;;26.97;;
1593;SDS011;790;47.000;16.084;2022-12-04T09:26:31;64.57;;;25.87;;
1593;SDS011;790;47.000;16.084;2022-12-04T09:29:00;59.50;;;26.27;;
1593;SDS011;790;47.000;16.084;2022-12-04T09:31:27;82.07;;;34.93;;
1593;SDS011;790;47.000;16.084;2022-12-04T09:33:56;88.90;;;47.63;;
1593;SDS011;790;47.000;16.084;2022-12-04T09:36:23;62.77;;;28.10;;
1593;SDS011;790;47.000;16.084;2022-12-04T09:38:51;57.07;;;25.17;;
1593;SDS011;790;47.000;16.084;2022-12-04T09:41:24;53.53;;;26.00;;
1593;SDS011;790;47.000;16.084;2022-12-04T09:44:13;56.70;;;25.87;;
1593;SDS011;790;47.000;16.084;2022-12-04T09:46:46;59.33;;;26.03;;
1593;SDS011;790;47.000;16.084;2022-12-04T09:49:18;63.27;;;27.40;;
1593;SDS011;790;47.000;16.084;2022-12-04T09:51:48;68.40;;;27.63;;
1593;SDS011;790;47.000;16.084;2022-12-04T09:54:18;64.10;;;27.87;;
1593;SDS011;790;47.000;16.084;2022-12-04T09:56:52;61.80;;;28.83;;
1593;SDS011;790;47.000;16.084;2022-12-04T09:59:24;62.80;;;27.87;;
1593;SDS011;790;47.000;16.084;2022-12-04T10:01:55;54.30;;;26.87;;
1593;SDS011;790;47.000;16.084;2022-12-04T10:04:27;72.40;;;27.87;;
1593;SDS011;790;47.000;16.084;2022-12-04T10:06:56;60.20;;;27.50;;
1593;SDS011;790;47.000;16.084;2022-12-04T10:09:30;67.73;;;29.77;;
1593;SDS011;790;47.000;16.084;2022-12-04T10:12:12;63.93;;;29.30;;
1593;SDS011;790;47.000;16.084;2022-12-04T10:14:57;67.20;;;28.83;;
1593;SDS011;790;47.000;16.084;2022-12-04T10:17:44;87.03;;;30.67;;
1593;SDS011;790;47.000;16.084;2022-12-04T10:23:13;92.70;;;33.53;;
1593;SDS011;790;47.000;16.084;2022-12-04T10:25:47;87.87;;;32.57;;
1593;SDS011;790;47.000;16.084;2022-12-04T10:28:19;62.60;;;30.20;;
1593;SDS011;790;47.000;16.084;2022-12-04T10:30:51;74.93;;;31.90;;
1593;SDS011;790;47.000;16.084;2022-12-04T10:33:23;73.00;;;31.10;;
1593;SDS011;790;47.000;16.084;2022-12-04T10:35:59;66.70;;;29.20;;
1593;SDS011;790;47.000;16.084;2022-12-04T10:38:29;79.93;;;37.33;;
1593;SDS011;790;47.000;16.084;2022-12-04T10:41:03;74.87;;;36.20;;
1593;SDS011;790;47.000;16.084;2022-12-04T10:43:40;75.60;;;32.73;;
1593;SDS011;790;47.000;16.084;2022-12-04T10:46:09;76.23;;;34.97;;
1593;SDS011;790;47.000;16.084;2022-12-04T10:48:39;66.47;;;31.37;;
1593;SDS011;790;47.000;16.084;2022-12-04T10:51:12;66.10;;;29.10;;
1593;SDS011;790;47.000;16.084;2022-12-04T10:53:41;75.90;;;33.07;;
1593;SDS011;790;47.000;16.084;2022-12-04T10:56:10;69.20;;;28.90;;
1593;SDS011;790;47.000;16.084;2022-12-04T10:58:40;74.50;;;37.77;;
1593;SDS011;790;47.000;16.084;2022-12-04T11:01:08;75.70;;;35.07;;
1593;SDS011;790;47.000;16.084;2022-12-04T11:03:37;77.33;;;30.70;;
1593;SDS011;790;47.000;16.084;2022-12-04T11:06:07;74.20;;;33.07;;
1593;SDS011;790;47.000;16.084;2022-12-04T11:08:36;68.37;;;30.40;;
1593;SDS011;790;47.000;16.084;2022-12-04T11:11:07;78.07;;;31.17;;
1593;SDS011;790;47.000;16.084;2022-12-04T11:13:37;135.83;;;86.90;;
1593;SDS011;790;47.000;16.084;2022-12-04T11:16:07;75.77;;;34.20;;
1593;SDS011;790;47.000;16.084;2022-12-04T11:18:54;67.40;;;29.83;;
1593;SDS011;790;47.000;16.084;2022-12-04T11:21:22;65.37;;;28.47;;
1593;SDS011;790;47.000;16.084;2022-12-04T11:23:52;64.97;;;29.73;;
1593;SDS011;790;47.000;16.084;2022-12-04T11:26:27;71.60;;;30.13;;
1593;SDS011;790;47.000;16.084;2022-12-04T11:28:56;67.10;;;30.40;;
1593;SDS011;790;47.000;16.084;2022-12-04T11:31:28;62.10;;;28.67;;
1593;SDS011;790;47.000;16.084;2022-12-04T11:33:57;58.27;;;27.70;;
1593;SDS011;790;47.000;16.084;2022-12-04T11:36:27;61.87;;;26.93;;
1593;SDS011;790;47.000;16.084;2022-12-04T11:39:03;55.60;;;27.37;;
1593;SDS011;790;47.000;16.084;2022-12-04T11:41:32;53.13;;;26.03;;
1593;SDS011;790;47.000;16.084;2022-12-04T11:43:59;45.53;;;25.23;;
1593;SDS011;790;47.000;16.084;2022-12-04T11:46:28;55.17;;;31.43;;
1593;SDS011;790;47.000;16.084;2022-12-04T11:48:58;49.60;;;24.73;;
1593;SDS011;790;47.000;16.084;2022-12-04T11:51:30;49.87;;;24.97;;
1593;SDS011;790;47.000;16.084;2022-12-04T11:54:10;43.77;;;23.60;;
1593;SDS011;790;47.000;16.084;2022-12-04T11:56:48;46.53;;;24.37;;
1593;SDS011;790;47.000;16.084;2022-12-04T12:02:27;46.53;;;25.47;;
1593;SDS011;790;47.000;16.084;2022-12-04T12:05:07;47.13;;;24.33;;
1593;SDS011;790;47.000;16.084;2022-12-04T12:07:48;47.07;;;24.30;;
1593;SDS011;790;47.000;16.084;2022-12-04T12:10:23;41.57;;;22.77;;
1593;SDS011;790;47.000;16.084;2022-12-04T12:12:59;43.70;;;23.17;;
1593;SDS011;790;47.000;16.084;2022-12-04T12:15:38;39.27;;;21.50;;
1593;SDS011;790;47.000;16.084;2022-12-04T12:18:17;40.70;;;21.20;;
1593;SDS011;790;47.000;16.084;2022-12-04T12:20:57;36.57;;;21.10;;
1593;SDS011;790;47.000;16.084;2022-12-04T12:23:35;41.50;;;22.27;;
1593;SDS011;790;47.000;16.084;2022-12-04T12:26:11;40.07;;;23.93;;
1593;SDS011;790;47.000;16.084;2022-12-04T12:28:45;34.77;;;20.77;;
1593;SDS011;790;47.000;16.084;2022-12-04T12:31:34;33.93;;;19.47;;
1593;SDS011;790;47.000;16.084;2022-12-04T12:34:20;31.90;;;18.73;;
1593;SDS011;790;47.000;16.084;2022-12-04T12:36:54;80.67;;;62.30;;
1593;SDS011;790;47.000;16.084;2022-12-04T12:39:24;36.60;;;22.03;;
1593;SDS011;790;47.000;16.084;2022-12-04T12:42:04;30.97;;;18.33;;
1593;SDS011;790;47.000;16.084;2022-12-04T12:44:38;30.70;;;18.40;;
1593;SDS011;790;47.000;16.084;2022-12-04T12:47:14;31.73;;;18.13;;
1593;SDS011;790;47.000;16.084;2022-12-04T12:49:47;28.73;;;18.07;;
1593;SDS011;790;47.000;16.084;2022-12-04T12:52:23;27.47;;;17.47;;
1593;SDS011;790;47.000;16.084;2022-12-04T12:54:56;29.90;;;17.97;;
1593;SDS011;790;47.000;16.084;2022-12-04T12:57:28;31.50;;;19.63;;
1593;SDS011;790;47.000;16.084;2022-12-04T13:00:03;27.67;;;17.43;;
1593;SDS011;790;47.000;16.084;2022-12-04T13:02:34;26.97;;;18.20;;
1593;SDS011;790;47.000;16.084;2022-12-04T13:05:09;28.13;;;17.43;;
1593;SDS011;790;47.000;16.084;2022-12-04T13:07:41;36.37;;;25.13;;
1593;SDS011;790;47.000;16.084;2022-12-04T13:10:15;32.87;;;19.73;;
1593;SDS011;790;47.000;16.084;2022-12-04T13:12:50;46.03;;;33.87;;
1593;SDS011;790;47.000;16.084;2022-12-04T13:15:21;23.63;;;17.30;;
1593;SDS011;790;47.000;16.084;2022-12-04T13:17:51;34.30;;;24.03;;
1593;SDS011;790;47.000;16.084;2022-12-04T13:20:25;26.30;;;18.57;;
1593;SDS011;790;47.000;16.084;2022-12-04T13:23:06;29.07;;;22.47;;
1593;SDS011;790;47.000;16.084;2022-12-04T13:25:45;21.43;;;14.60;;
1593;SDS011;790;47.000;16.084;2022-12-04T13:28:24;24.30;;;17.43;;
1593;SDS011;790;47.000;16.084;2022-12-04T13:31:03;21.40;;;14.87;;
1593;SDS011;790;47.000;16.084;2022-12-04T13:33:42;23.17;;;14.80;;
1593;SDS011;790;47.000;16.084;2022-12-04T13:42:40;21.33;;;13.87;;
1593;SDS011;790;47.000;16.084;2022-12-04T13:45:09;21.57;;;13.33;;
1593;SDS011;790;47.000;16.084;2022-12-04T13:47:37;19.83;;;13.73;;
1593;SDS011;790;47.000;16.084;2022-12-04T13:50:20;19.57;;;13.93;;
1593;SDS011;790;47.000;16.084;2022-12-04T13:52:55;19.60;;;14.40;;
1593;SDS011;790;47.000;16.084;2022-12-04T13:55:26;21.77;;;14.17;;
1593;SDS011;790;47.000;16.084;2022-12-04T13:57:55;19.23;;;12.40;;
1593;SDS011;790;47.000;16.084;2022-12-04T14:00:25;23.17;;;15.57;;
1593;SDS011;790;47.000;16.084;2022-12-04T14:02:55;19.13;;;13.77;;
1593;SDS011;790;47.000;16.084;2022-12-04T14:05:26;18.67;;;12.23;;
1593;SDS011;790;47.000;16.084;2022-12-04T14:07:59;17.77;;;12.30;;
1593;SDS011;790;47.000;16.084;2022-12-04T14:10:29;35.43;;;26.90;;
1593;SDS011;790;47.000;16.084;2022-12-04T14:12:59;16.70;;;13.10;;
1593;SDS011;790;47.000;16.084;2022-12-04T14:15:30;15.97;;;12.30;;
1593;SDS011;790;47.000;16.084;2022-12-04T14:17:59;15.50;;;11.87;;
1593;SDS011;790;47.000;16.084;2022-12-04T14:20:29;18.47;;;14.30;;
1593;SDS011;790;47.000;16.084;2022-12-04T14:25:52;16.80;;;11.90;;
1593;SDS011;790;47.000;16.084;2022-12-04T14:28:23;20.97;;;15.20;;
1593;SDS011;790;47.000;16.084;2022-12-04T14:30:57;16.30;;;11.67;;
1593;SDS011;790;47.000;16.084;2022-12-04T14:33:45;16.90;;;11.83;;
1593;SDS011;790;47.000;16.084;2022-12-04T14:36:17;16.43;;;11.53;;
1593;SDS011;790;47.000;16.084;2022-12-04T14:38:52;20.53;;;14.07;;
1593;SDS011;790;47.000;16.084;2022-12-04T14:41:27;22.20;;;13.20;;
1593;SDS011;790;47.000;16.084;2022-12-04T14:43:55;18.47;;;14.30;;
1593;SDS011;790;47.000;16.084;2022-12-04T14:46:25;27.10;;;21.30;;
1593;SDS011;790;47.000;16.084;2022-12-04T14:48:59;21.30;;;16.27;;
1593;SDS011;790;47.000;16.084;2022-12-04T14:51:39;19.63;;;15.40;;
1593;SDS011;790;47.000;16.084;2022-12-04T14:54:14;18.57;;;13.60;;
1593;SDS011;790;47.000;16.084;2022-12-04T14:56:50;17.27;;;12.90;;
1593;SDS011;790;47.000;16.084;2022-12-04T14:59:33;18.83;;;13.50;;
1593;SDS011;790;47.000;16.084;2022-12-04T15:02:09;20.30;;;14.30;;
1593;SDS011;790;47.000;16.084;2022-12-04T15:04:38;15.80;;;12.60;;
1593;SDS011;790;47.000;16.084;2022-12-04T15:07:10;16.07;;;12.13;;
1593;SDS011;790;47.000;16.084;2022-12-04T15:09:50;18.50;;;12.77;;
1593;SDS011;790;47.000;16.084;2022-12-04T15:12:40;17.93;;;12.70;;
1593;SDS011;790;47.000;16.084;2022-12-04T15:15:13;20.60;;;14.57;;
1593;SDS011;790;47.000;16.084;2022-12-04T15:17:53;21.33;;;13.97;;
1593;SDS011;790;47.000;16.084;2022-12-04T15:20:22;16.77;;;12.30;;
1593;SDS011;790;47.000;16.084;2022-12-04T15:22:49;18.53;;;13.43;;
1593;SDS011;790;47.000;16.084;2022-12-04T15:25:19;15.30;;;12.53;;
1593;SDS011;790;47.000;16.084;2022-12-04T15:27:50;17.63;;;12.17;;
1593;SDS011;790;47.000;16.084;2022-12-04T15:30:23;18.23;;;12.83;;